Terminal Aerodrome Forecast
Issued by NWS St Louis, MO

Home | Current Version | Previous Version | Text Only | Print | Product List | Glossary On
Versions: 1 2 3 4 5 6 7 8 9 10 11 12 13 14 15 16 17 18 19 20 21 22 23 24 25 26 27 28 29 30
000
FTUS43 KLSX 201300 AAA
TAFSTL
TAF AMD
KSTL 201306Z 2013/2118 00000KT P6SM BKN200
     FM201330 04006KT P6SM FEW002 BKN060
     FM201600 21009KT P6SM FEW040
     FM210600 20007KT P6SM BKN090
     FM211500 22010KT P6SM SCT040=

USA.gov is the U.S. government's official web portal to all federal, state and local government web resources and services.